createdAt,value
2023-03-17T00:01:56.949Z,55.43
2023-03-17T00:04:29.246Z,54.82
2023-03-17T00:06:59.924Z,54.84
2023-03-17T00:09:29.907Z,55.21
2023-03-17T00:12:03.805Z,55.71
2023-03-17T00:14:33.714Z,55.07
2023-03-17T00:17:03.596Z,55.86
2023-03-17T00:19:37.502Z,55.15
2023-03-17T00:22:22.225Z,55.83
2023-03-17T00:24:52.123Z,55.81
2023-03-17T00:27:24.756Z,56.29
2023-03-17T00:29:54.576Z,56.29
2023-03-17T00:32:25.459Z,55.88
2023-03-17T00:34:55.469Z,55.80
2023-03-17T00:37:25.426Z,56.46
2023-03-17T00:39:56.301Z,57.03
2023-03-17T00:42:31.420Z,56.67
2023-03-17T00:45:01.420Z,56.26
2023-03-17T00:47:32.074Z,56.53
2023-03-17T00:50:02.038Z,56.59
2023-03-17T00:52:32.588Z,56.39
2023-03-17T00:55:02.446Z,56.84
2023-03-17T00:57:35.222Z,56.96
2023-03-17T01:00:06.336Z,56.89
2023-03-17T01:02:36.529Z,57.64
2023-03-17T01:05:07.233Z,57.57
2023-03-17T01:07:38.313Z,58.48
2023-03-17T01:10:15.901Z,57.98
2023-03-17T01:12:49.374Z,57.74
2023-03-17T01:15:19.798Z,57.38
2023-03-17T01:17:50.571Z,57.62
2023-03-17T01:20:24.931Z,58.04
2023-03-17T01:22:55.278Z,58.30
2023-03-17T01:25:25.560Z,57.92
2023-03-17T01:27:59.708Z,58.32
2023-03-17T01:30:33.090Z,58.31
2023-03-17T01:33:03.016Z,58.23
2023-03-17T01:35:33.265Z,57.91
2023-03-17T01:38:04.345Z,58.37
2023-03-17T01:40:36.338Z,58.56
2023-03-17T01:43:21.535Z,58.21
2023-03-17T01:46:25.465Z,58.89
2023-03-17T01:49:19.427Z,59.61
2023-03-17T01:52:01.901Z,58.87
2023-03-17T01:54:40.251Z,58.26
2023-03-17T01:57:16.146Z,58.40
2023-03-17T01:59:55.440Z,59.67
2023-03-17T02:02:31.013Z,59.74
2023-03-17T02:05:02.725Z,59.62
2023-03-17T02:07:33.132Z,59.53
2023-03-17T02:10:04.665Z,59.83
2023-03-17T02:12:36.691Z,59.34
2023-03-17T02:15:10.051Z,59.28
2023-03-17T02:17:40.364Z,59.84
2023-03-17T02:20:38.350Z,59.70
2023-03-17T02:23:11.879Z,59.71
2023-03-17T02:25:47.200Z,60.18
2023-03-17T02:28:24.776Z,60.27
2023-03-17T02:30:55.014Z,60.21
2023-03-17T02:33:24.876Z,60.57
2023-03-17T02:35:58.008Z,60.30
2023-03-17T02:38:30.959Z,59.58
2023-03-17T02:41:03.698Z,60.75
2023-03-17T02:43:33.579Z,60.67
2023-03-17T02:46:03.537Z,60.70
2023-03-17T02:48:33.429Z,61.07
2023-03-17T02:51:03.317Z,60.85
2023-03-17T02:53:35.754Z,60.80
2023-03-17T02:56:06.293Z,61.35
2023-03-17T02:58:36.133Z,61.17
2023-03-17T03:01:06.758Z,61.02
2023-03-17T03:03:37.192Z,60.92
2023-03-17T03:06:07.592Z,61.83
2023-03-17T03:08:40.048Z,61.67
2023-03-17T03:11:10.018Z,62.24
2023-03-17T03:13:39.984Z,63.21
2023-03-17T03:16:10.880Z,62.72
2023-03-17T03:18:40.823Z,62.56
2023-03-17T03:21:11.151Z,63.57
2023-03-17T03:23:43.574Z,63.51
2023-03-17T03:26:13.443Z,63.79
2023-03-17T03:28:43.345Z,64.53
2023-03-17T03:31:14.075Z,64.89
2023-03-17T03:33:44.972Z,64.07
2023-03-17T03:36:15.044Z,64.26
2023-03-17T03:38:47.922Z,64.64
2023-03-17T03:41:17.829Z,64.54
2023-03-17T03:43:47.849Z,64.88
2023-03-17T03:46:18.294Z,64.32
2023-03-17T03:48:48.351Z,62.82
2023-03-17T03:51:18.176Z,63.78
2023-03-17T03:53:50.922Z,64.66
2023-03-17T03:56:20.930Z,64.78
2023-03-17T03:58:51.314Z,64.43
2023-03-17T04:01:21.594Z,64.96
2023-03-17T04:03:51.456Z,64.63
2023-03-17T04:06:21.563Z,64.61
2023-03-17T04:08:55.022Z,65.19
2023-03-17T04:11:26.362Z,65.26
2023-03-17T04:13:56.200Z,64.86
2023-03-17T04:16:26.350Z,65.06
2023-03-17T04:18:56.496Z,64.89
2023-03-17T04:21:26.556Z,64.73
2023-03-17T04:23:59.158Z,65.69
2023-03-17T04:26:29.026Z,65.80
2023-03-17T04:28:58.874Z,66.27
2023-03-17T04:31:28.957Z,65.72
2023-03-17T04:33:58.791Z,66.57
2023-03-17T04:36:28.707Z,66.11
2023-03-17T04:39:02.064Z,67.04
2023-03-17T04:41:31.859Z,66.11
2023-03-17T04:44:01.710Z,66.01
2023-03-17T04:46:31.943Z,65.98
2023-03-17T04:49:01.788Z,66.91
2023-03-17T04:51:31.832Z,66.82
2023-03-17T04:54:04.266Z,67.34
2023-03-17T04:56:34.119Z,67.11
2023-03-17T04:59:03.959Z,67.80
2023-03-17T05:01:34.054Z,67.85
2023-03-17T05:04:04.277Z,67.66
2023-03-17T05:06:34.145Z,67.73
2023-03-17T05:09:06.888Z,67.75
2023-03-17T05:11:37.215Z,67.64
2023-03-17T05:14:07.134Z,67.70
2023-03-17T05:16:37.010Z,67.50
2023-03-17T05:19:06.888Z,67.99
2023-03-17T05:21:37.271Z,68.21
2023-03-17T05:24:09.962Z,68.70
2023-03-17T05:26:39.970Z,68.27
2023-03-17T05:29:10.710Z,67.76
2023-03-17T05:31:40.532Z,67.89
2023-03-17T05:34:10.404Z,68.92
2023-03-17T05:36:42.530Z,68.16
2023-03-17T05:39:18.286Z,68.99
2023-03-17T05:41:48.113Z,68.33
2023-03-17T05:44:18.024Z,68.81
2023-03-17T05:46:47.893Z,68.67
2023-03-17T05:49:18.773Z,68.13
2023-03-17T05:51:48.614Z,67.79
2023-03-17T05:54:21.581Z,68.74
2023-03-17T05:56:51.790Z,68.48
2023-03-17T05:59:22.389Z,68.44
2023-03-17T06:01:52.329Z,68.76
2023-03-17T06:04:25.450Z,68.45
2023-03-17T06:06:55.316Z,68.42
2023-03-17T06:09:28.155Z,68.02
2023-03-17T06:11:58.077Z,68.20
2023-03-17T06:14:28.815Z,68.34
2023-03-17T06:16:59.696Z,68.88
2023-03-17T06:19:29.543Z,68.45
2023-03-17T06:21:59.864Z,68.66
2023-03-17T06:24:34.091Z,68.82
2023-03-17T06:27:04.203Z,67.92
2023-03-17T06:29:34.051Z,68.67
2023-03-17T06:32:19.156Z,67.35
2023-03-17T06:34:50.025Z,66.93
2023-03-17T06:37:20.274Z,66.74
2023-03-17T06:39:52.792Z,66.17
2023-03-17T06:42:22.779Z,65.88
2023-03-17T06:44:53.018Z,65.71
2023-03-17T06:47:25.817Z,65.01
2023-03-17T06:49:56.109Z,64.69
2023-03-17T06:52:26.616Z,64.47
2023-03-17T06:54:59.031Z,64.13
2023-03-17T06:57:28.917Z,63.88
2023-03-17T06:59:58.800Z,63.54
2023-03-17T07:02:29.560Z,63.87
2023-03-17T07:05:00.032Z,63.32
2023-03-17T07:07:30.168Z,63.08
2023-03-17T07:10:02.545Z,63.15
2023-03-17T07:12:33.067Z,63.16
2023-03-17T07:15:03.463Z,62.86
2023-03-17T07:17:33.745Z,63.07
2023-03-17T07:20:03.894Z,62.16
2023-03-17T07:22:33.803Z,61.84
2023-03-17T07:25:06.582Z,61.88
2023-03-17T07:27:36.460Z,62.07
2023-03-17T07:30:07.848Z,61.49
2023-03-17T07:32:37.827Z,61.09
2023-03-17T07:35:08.821Z,60.72
2023-03-17T07:37:38.763Z,60.37
2023-03-17T07:40:14.932Z,60.29
2023-03-17T07:42:45.528Z,60.67
2023-03-17T07:45:15.582Z,59.82
2023-03-17T07:47:46.436Z,59.31
2023-03-17T07:50:16.673Z,59.01
2023-03-17T07:52:46.745Z,58.99
2023-03-17T07:55:19.253Z,59.30
2023-03-17T07:57:49.480Z,58.38
2023-03-17T08:00:21.807Z,57.87
2023-03-17T08:03:06.843Z,57.60
2023-03-17T08:05:39.704Z,56.90
2023-03-17T08:08:10.750Z,56.78
2023-03-17T08:10:43.412Z,56.91
2023-03-17T08:13:14.318Z,56.69
2023-03-17T08:15:44.322Z,56.95
2023-03-17T08:18:14.496Z,56.94
2023-03-17T08:20:44.382Z,56.48
2023-03-17T08:23:14.355Z,56.10
2023-03-17T08:25:47.711Z,55.10
2023-03-17T08:28:18.187Z,55.30
2023-03-17T08:30:50.551Z,54.94
2023-03-17T08:33:20.922Z,54.95
2023-03-17T08:35:51.683Z,55.21
2023-03-17T08:38:21.572Z,54.79
2023-03-17T08:40:54.532Z,54.31
2023-03-17T08:43:24.456Z,54.15
2023-03-17T08:45:54.768Z,53.74
2023-03-17T08:48:24.996Z,53.75
2023-03-17T08:50:54.955Z,53.18
2023-03-17T08:53:25.160Z,53.16
2023-03-17T08:55:59.449Z,52.53
2023-03-17T08:58:29.616Z,51.79
2023-03-17T09:01:02.936Z,51.61
2023-03-17T09:03:33.448Z,51.13
2023-03-17T09:06:05.943Z,51.05
2023-03-17T09:08:38.788Z,50.46
2023-03-17T09:11:11.630Z,50.44
2023-03-17T09:13:41.753Z,50.11
2023-03-17T09:16:11.807Z,49.81
2023-03-17T09:18:42.482Z,49.01
2023-03-17T09:21:14.629Z,49.18
2023-03-17T09:23:46.861Z,48.32
2023-03-17T09:26:20.185Z,47.44
2023-03-17T09:28:50.136Z,47.38
2023-03-17T09:31:20.006Z,47.13
2023-03-17T09:33:50.216Z,46.93
2023-03-17T09:36:20.463Z,47.01
2023-03-17T09:38:51.291Z,46.96
2023-03-17T09:41:48.359Z,47.41
2023-03-17T09:44:38.041Z,46.65
2023-03-17T09:47:31.153Z,46.25
2023-03-17T09:50:06.012Z,46.51
2023-03-17T09:52:37.710Z,46.41
2023-03-17T09:55:15.093Z,46.40
2023-03-17T09:57:48.803Z,45.28
2023-03-17T10:00:26.659Z,44.89
2023-03-17T10:02:57.932Z,44.26
2023-03-17T10:05:31.354Z,43.51
2023-03-17T10:08:27.057Z,43.31
2023-03-17T10:11:10.992Z,42.64
2023-03-17T10:13:55.793Z,42.40
2023-03-17T10:16:34.522Z,42.42
2023-03-17T10:19:13.208Z,40.53
2023-03-17T10:21:51.546Z,39.99
2023-03-17T10:24:23.420Z,41.06
2023-03-17T10:26:57.430Z,39.76
2023-03-17T10:29:31.559Z,39.55
2023-03-17T10:32:01.655Z,39.27
2023-03-17T10:34:34.629Z,39.62
2023-03-17T10:37:09.551Z,39.24
2023-03-17T10:39:47.465Z,39.18
2023-03-17T10:42:26.938Z,39.06
2023-03-17T10:45:03.994Z,38.76
2023-03-17T10:47:36.436Z,38.14
2023-03-17T10:50:22.737Z,38.60
2023-03-17T10:53:00.671Z,39.40
2023-03-17T10:55:35.326Z,37.98
2023-03-17T10:58:09.356Z,37.16
2023-03-17T11:00:50.889Z,37.18
2023-03-17T11:03:27.248Z,36.57
2023-03-17T11:05:59.645Z,36.33
2023-03-17T11:08:35.571Z,35.36
2023-03-17T11:11:10.728Z,34.77
2023-03-17T11:13:41.015Z,34.72
2023-03-17T11:16:25.099Z,34.77
2023-03-17T11:19:00.181Z,33.36
2023-03-17T11:21:35.389Z,32.29
2023-03-17T11:24:15.590Z,32.37
2023-03-17T11:26:59.247Z,31.66
2023-03-17T11:29:46.494Z,30.95
2023-03-17T11:32:29.868Z,31.64
2023-03-17T11:35:27.217Z,30.63
2023-03-17T11:38:22.939Z,32.00
2023-03-17T11:41:13.549Z,30.52
2023-03-17T11:44:02.302Z,30.66
2023-03-17T11:46:39.620Z,29.90
2023-03-17T11:49:20.729Z,28.09
2023-03-17T11:52:03.202Z,30.07
2023-03-17T11:54:46.000Z,29.40
2023-03-17T11:57:22.041Z,30.02
2023-03-17T11:59:58.616Z,31.32
2023-03-17T12:02:36.883Z,32.25
2023-03-17T12:05:15.456Z,32.95
2023-03-17T12:07:52.571Z,33.05
2023-03-17T12:10:28.835Z,33.22
2023-03-17T12:13:07.046Z,31.18
2023-03-17T12:15:43.550Z,30.46
2023-03-17T12:18:20.826Z,29.40
2023-03-17T12:21:01.655Z,29.96
2023-03-17T12:23:42.253Z,29.50
2023-03-17T12:26:17.763Z,31.75
2023-03-17T12:28:56.210Z,32.17
2023-03-17T12:31:32.203Z,32.65
2023-03-17T12:34:09.319Z,34.76
2023-03-17T12:36:42.960Z,34.68
2023-03-17T12:39:18.513Z,34.39
2023-03-17T12:42:14.356Z,34.23
2023-03-17T12:45:05.153Z,32.35
2023-03-17T12:48:07.246Z,27.45
2023-03-17T12:51:06.986Z,23.94
2023-03-17T12:53:44.706Z,20.20
2023-03-17T12:56:23.654Z,17.16
2023-03-17T12:58:55.956Z,16.05
2023-03-17T13:01:35.019Z,16.07
2023-03-17T13:04:19.576Z,17.72
2023-03-17T13:07:00.852Z,17.34
2023-03-17T13:09:47.590Z,18.81
2023-03-17T13:12:52.974Z,19.80
2023-03-17T13:15:31.927Z,21.95
2023-03-17T13:18:29.805Z,26.15
2023-03-17T13:21:16.343Z,25.12
2023-03-17T13:23:48.640Z,23.25
2023-03-17T13:26:23.612Z,22.97
2023-03-17T13:28:54.229Z,22.47
2023-03-17T13:31:39.957Z,22.09
2023-03-17T13:34:17.896Z,20.85
2023-03-17T13:37:02.599Z,22.16
2023-03-17T13:40:04.727Z,19.30
2023-03-17T13:43:06.684Z,19.38
2023-03-17T13:45:41.871Z,21.16
2023-03-17T13:48:34.934Z,21.01
2023-03-17T13:51:17.157Z,21.81
2023-03-17T13:53:52.811Z,22.91
2023-03-17T13:56:27.958Z,24.29
2023-03-17T13:59:18.922Z,24.82
2023-03-17T14:01:58.786Z,24.86
2023-03-17T14:04:34.599Z,25.95
2023-03-17T14:07:18.910Z,26.05
2023-03-17T14:09:49.257Z,26.04
2023-03-17T14:12:27.594Z,25.93
2023-03-17T14:15:08.659Z,25.36
2023-03-17T14:17:47.540Z,26.69
2023-03-17T14:20:27.618Z,27.05
2023-03-17T14:23:00.111Z,27.69
2023-03-17T14:25:36.654Z,24.51
2023-03-17T14:28:11.427Z,24.54
2023-03-17T14:30:55.069Z,25.08
2023-03-17T14:33:28.721Z,27.55
2023-03-17T14:36:01.598Z,28.19
2023-03-17T14:38:34.162Z,29.34
2023-03-17T14:41:07.488Z,29.55
2023-03-17T14:43:39.094Z,29.85
2023-03-17T14:46:19.005Z,30.72
2023-03-17T14:48:51.402Z,31.57
2023-03-17T14:51:30.948Z,31.76
2023-03-17T14:54:06.641Z,32.31
2023-03-17T14:56:41.301Z,34.19
2023-03-17T14:59:21.836Z,33.49
2023-03-17T15:01:57.715Z,33.07
2023-03-17T15:04:31.193Z,33.57
2023-03-17T15:07:04.207Z,34.07
2023-03-17T15:09:39.300Z,34.64
2023-03-17T15:12:19.528Z,35.19
2023-03-17T15:14:52.256Z,34.66
2023-03-17T15:17:30.521Z,34.52
2023-03-17T15:20:07.166Z,35.81
2023-03-17T15:22:45.806Z,35.48
2023-03-17T15:25:23.192Z,36.19
2023-03-17T15:27:54.182Z,36.04
2023-03-17T15:30:24.773Z,36.81
2023-03-17T15:33:03.681Z,36.69
2023-03-17T15:35:33.694Z,36.42
2023-03-17T15:38:04.542Z,36.36
2023-03-17T15:40:34.530Z,36.62
2023-03-17T15:43:04.388Z,36.84
2023-03-17T15:45:34.294Z,37.34
2023-03-17T15:48:07.219Z,37.56
2023-03-17T15:50:37.219Z,37.49
2023-03-17T15:53:07.336Z,37.38
2023-03-17T15:55:37.215Z,37.51
2023-03-17T15:58:07.081Z,38.25
2023-03-17T16:00:37.964Z,37.87
2023-03-17T16:03:21.563Z,38.02
2023-03-17T16:05:51.525Z,38.36
2023-03-17T16:08:21.992Z,38.14
2023-03-17T16:10:52.099Z,38.31
2023-03-17T16:13:22.466Z,38.50
2023-03-17T16:15:58.424Z,38.50
2023-03-17T16:18:36.976Z,38.82
2023-03-17T16:21:08.056Z,39.39
2023-03-17T16:23:39.210Z,38.41
2023-03-17T16:26:15.666Z,39.02
2023-03-17T16:28:49.167Z,38.85
2023-03-17T16:31:29.454Z,38.87
2023-03-17T16:34:02.086Z,39.30
2023-03-17T16:36:32.117Z,39.56
2023-03-17T16:39:02.130Z,39.55
2023-03-17T16:41:31.969Z,38.99
2023-03-17T16:44:05.566Z,39.54
2023-03-17T16:46:37.677Z,39.94
2023-03-17T16:49:10.302Z,43.79
2023-03-17T16:51:40.184Z,41.65
2023-03-17T16:54:10.088Z,40.33
2023-03-17T16:56:42.384Z,40.12
2023-03-17T16:59:24.425Z,43.75
2023-03-17T17:01:54.992Z,41.58
2023-03-17T17:04:27.521Z,42.02
2023-03-17T17:06:57.797Z,42.17
2023-03-17T17:09:27.688Z,42.17
2023-03-17T17:11:58.565Z,42.65
2023-03-17T17:14:28.425Z,42.04
2023-03-17T17:16:58.335Z,43.68
2023-03-17T17:19:30.815Z,45.02
2023-03-17T17:22:01.060Z,44.25
2023-03-17T17:24:31.186Z,46.03
2023-03-17T17:27:01.108Z,44.71
2023-03-17T17:29:32.426Z,44.11
2023-03-17T17:32:02.522Z,43.68
2023-03-17T17:34:35.139Z,43.88
2023-03-17T17:37:05.167Z,43.32
2023-03-17T17:39:35.316Z,47.18
2023-03-17T17:42:05.271Z,44.92
2023-03-17T17:44:36.962Z,45.15
2023-03-17T17:47:07.589Z,45.38
2023-03-17T17:49:40.326Z,46.04
2023-03-17T17:52:10.312Z,46.48
2023-03-17T17:54:40.926Z,45.86
2023-03-17T17:57:10.906Z,45.75
2023-03-17T17:59:40.995Z,47.90
2023-03-17T18:02:10.978Z,47.84
2023-03-17T18:04:43.549Z,46.48
2023-03-17T18:07:13.537Z,46.68
2023-03-17T18:09:43.455Z,46.84
2023-03-17T18:12:13.829Z,47.84
2023-03-17T18:14:43.941Z,48.02
2023-03-17T18:17:14.655Z,47.08
2023-03-17T18:19:47.188Z,48.06
2023-03-17T18:22:17.427Z,48.00
2023-03-17T18:24:47.295Z,48.06
2023-03-17T18:27:17.308Z,46.37
2023-03-17T18:29:47.497Z,48.01
2023-03-17T18:32:18.071Z,46.75
2023-03-17T18:34:51.661Z,46.94
2023-03-17T18:37:21.925Z,48.04
2023-03-17T18:40:09.859Z,47.50
2023-03-17T18:42:41.795Z,48.27
2023-03-17T18:45:13.738Z,48.24
2023-03-17T18:47:44.049Z,48.47
2023-03-17T18:50:19.688Z,48.49
2023-03-17T18:52:49.799Z,48.36
2023-03-17T18:55:20.137Z,47.89
2023-03-17T18:57:50.337Z,49.97
2023-03-17T19:00:21.345Z,49.66
2023-03-17T19:02:51.553Z,49.81
2023-03-17T19:05:24.520Z,49.69
2023-03-17T19:07:55.034Z,49.89
2023-03-17T19:10:25.008Z,49.52
2023-03-17T19:12:55.425Z,50.01
2023-03-17T19:15:25.423Z,50.41
2023-03-17T19:17:55.369Z,50.04
2023-03-17T19:20:27.971Z,51.55
2023-03-17T19:22:58.513Z,51.23
2023-03-17T19:25:28.772Z,51.34
2023-03-17T19:27:59.190Z,51.00
2023-03-17T19:30:29.281Z,50.27
2023-03-17T19:32:59.352Z,51.43
2023-03-17T19:35:31.843Z,51.41
2023-03-17T19:38:03.499Z,51.50
2023-03-17T19:40:33.793Z,51.63
2023-03-17T19:43:04.067Z,51.63
2023-03-17T19:45:34.391Z,50.82
2023-03-17T19:48:04.302Z,49.58
2023-03-17T19:50:37.555Z,50.01
2023-03-17T19:53:07.993Z,50.35
2023-03-17T19:55:38.532Z,50.36
2023-03-17T19:58:10.918Z,49.44
2023-03-17T20:00:41.893Z,49.04
2023-03-17T20:03:12.776Z,49.69
2023-03-17T20:05:47.829Z,49.75
2023-03-17T20:08:17.766Z,49.69
2023-03-17T20:10:47.796Z,49.58
2023-03-17T20:13:17.792Z,49.32
2023-03-17T20:15:48.414Z,49.88
2023-03-17T20:18:18.768Z,49.68
2023-03-17T20:20:57.355Z,49.76
2023-03-17T20:23:28.749Z,49.67
2023-03-17T20:25:58.753Z,50.03
2023-03-17T20:28:30.132Z,50.83
2023-03-17T20:31:03.165Z,50.77
2023-03-17T20:33:34.326Z,51.09
2023-03-17T20:36:07.884Z,52.03
2023-03-17T20:38:39.064Z,52.09
2023-03-17T20:41:11.443Z,51.76
2023-03-17T20:43:41.819Z,51.81
2023-03-17T20:46:18.009Z,52.63
2023-03-17T20:48:49.370Z,52.93
2023-03-17T20:51:22.173Z,51.99
2023-03-17T20:53:53.375Z,51.99
2023-03-17T20:56:26.629Z,52.81
2023-03-17T20:58:58.502Z,52.35
2023-03-17T21:01:29.420Z,50.56
2023-03-17T21:03:59.392Z,49.93
2023-03-17T21:06:32.806Z,49.35
2023-03-17T21:09:02.787Z,49.49
2023-03-17T21:11:33.072Z,49.11
2023-03-17T21:14:03.475Z,48.90
2023-03-17T21:16:34.009Z,48.93
2023-03-17T21:19:06.452Z,48.47
2023-03-17T21:21:40.556Z,48.89
2023-03-17T21:24:10.828Z,49.08
2023-03-17T21:26:41.320Z,50.41
2023-03-17T21:29:11.864Z,50.07
2023-03-17T21:31:41.820Z,50.42
2023-03-17T21:34:12.464Z,50.56
2023-03-17T21:36:45.043Z,50.87
2023-03-17T21:39:15.225Z,50.62
2023-03-17T21:41:46.217Z,50.31
2023-03-17T21:44:16.079Z,50.92
2023-03-17T21:46:46.390Z,50.87
2023-03-17T21:49:16.804Z,51.48
2023-03-17T21:51:50.272Z,52.05
2023-03-17T21:54:21.559Z,51.25
2023-03-17T21:56:52.320Z,51.66
2023-03-17T21:59:22.208Z,52.05
2023-03-17T22:01:53.458Z,51.85
2023-03-17T22:04:23.488Z,52.26
2023-03-17T22:06:56.682Z,52.28
2023-03-17T22:09:26.635Z,51.49
2023-03-17T22:11:56.552Z,51.43
2023-03-17T22:14:27.047Z,52.54
2023-03-17T22:16:57.245Z,51.06
2023-03-17T22:19:28.641Z,52.12
2023-03-17T22:22:02.319Z,52.47
2023-03-17T22:24:32.540Z,51.61
2023-03-17T22:27:02.528Z,50.82
2023-03-17T22:29:32.418Z,51.27
2023-03-17T22:32:02.714Z,51.58
2023-03-17T22:34:32.658Z,51.84
2023-03-17T22:37:05.338Z,52.18
2023-03-17T22:39:35.485Z,51.94
2023-03-17T22:42:05.578Z,51.42
2023-03-17T22:44:35.725Z,52.06
2023-03-17T22:47:05.705Z,51.59
2023-03-17T22:49:35.656Z,51.76
2023-03-17T22:52:08.875Z,52.59
2023-03-17T22:54:38.838Z,52.07
2023-03-17T22:57:09.085Z,52.50
2023-03-17T22:59:39.187Z,51.79
2023-03-17T23:02:09.173Z,51.66
2023-03-17T23:04:39.148Z,51.98
2023-03-17T23:07:11.867Z,50.95
2023-03-17T23:09:41.861Z,51.80
2023-03-17T23:12:12.924Z,51.12
2023-03-17T23:14:43.817Z,52.21
2023-03-17T23:17:14.025Z,51.72
2023-03-17T23:19:43.987Z,52.19
2023-03-17T23:22:17.118Z,52.13
2023-03-17T23:24:47.358Z,52.64
2023-03-17T23:27:17.773Z,52.37
2023-03-17T23:29:47.723Z,52.27
2023-03-17T23:32:18.212Z,52.64
2023-03-17T23:34:48.170Z,52.91
2023-03-17T23:37:20.729Z,52.69
2023-03-17T23:39:50.571Z,52.09
2023-03-17T23:42:20.445Z,53.04
2023-03-17T23:44:50.509Z,52.91
2023-03-17T23:47:21.371Z,53.00
2023-03-17T23:49:51.467Z,53.77
2023-03-17T23:52:24.665Z,53.02
2023-03-17T23:54:54.752Z,53.61
2023-03-17T23:57:24.727Z,53.07
2023-03-17T23:59:55.377Z,53.37
